Time;durP1;ratioP1;P1;durP2;ratioP2;P2;SDS_P1;SDS_P2;PMS_P1;PMS_P2;Temp;Humidity;BMP_temperature;BMP_pressure;BME280_temperature;BME280_humidity;BME280_pressure;Samples;Min_cycle;Max_cycle;Signal;HPM_P1;HPM_P2
2022/01/13 00:01:29;;;;;;;36.45;23.60;;;0.20;80.80;;;;;;5055075;28;20209;-55
2022/01/13 00:03:56;;;;;;;33.20;20.50;;;0.20;81.10;;;;;;5054369;28;20225;-56
2022/01/13 00:06:23;;;;;;;34.83;21.35;;;0.40;80.30;;;;;;5054745;28;20212;-55
2022/01/13 00:08:52;;;;;;;36.08;20.33;;;0.40;80.10;;;;;;5054609;28;20244;-58
2022/01/13 00:11:19;;;;;;;35.50;21.27;;;0.30;80.20;;;;;;5054530;28;20291;-57
2022/01/13 00:13:52;;;;;;;36.75;21.63;;;0.20;80.50;;;;;;5053408;28;20220;-56
2022/01/13 00:16:38;;;;;;;41.50;23.40;;;0.10;81.30;;;;;;5054148;28;20208;-54
2022/01/13 00:19:18;;;;;;;38.20;23.35;;;0.00;81.40;;;;;;5055031;28;20308;-58
2022/01/13 00:21:52;;;;;;;39.80;22.42;;;-0.10;81.80;;;;;;5055203;28;20602;-60
2022/01/13 00:24:20;;;;;;;42.33;22.35;;;0.00;81.40;;;;;;5054970;28;20235;-55
2022/01/13 00:26:48;;;;;;;32.75;21.35;;;-0.20;82.10;;;;;;5054604;28;20233;-59
2022/01/13 00:29:20;;;;;;;34.97;21.60;;;-0.20;82.50;;;;;;5053722;28;20288;-60
2022/01/13 00:31:47;;;;;;;44.17;23.33;;;0.00;82.10;;;;;;5054892;28;20217;-59
2022/01/13 00:34:14;;;;;;;33.90;22.48;;;0.10;81.90;;;;;;5054877;28;20239;-60
2022/01/13 00:36:42;;;;;;;37.75;22.58;;;0.10;81.40;;;;;;5054761;28;20240;-58
2022/01/13 00:39:10;;;;;;;38.08;22.55;;;0.10;81.20;;;;;;5054773;28;20570;-56
2022/01/13 00:41:39;;;;;;;37.08;22.73;;;0.30;80.90;;;;;;5054554;28;20201;-60
2022/01/13 00:44:08;;;;;;;32.28;20.23;;;0.30;81.00;;;;;;5053279;28;20695;-60
2022/01/13 00:46:42;;;;;;;33.83;21.95;;;0.30;80.90;;;;;;5054584;28;20211;-58
2022/01/13 00:49:10;;;;;;;40.47;20.25;;;0.40;80.60;;;;;;5054600;28;20205;-59
2022/01/13 00:51:37;;;;;;;33.83;21.00;;;0.40;80.30;;;;;;5054532;28;20612;-58
2022/01/13 00:54:06;;;;;;;37.35;22.70;;;0.40;80.00;;;;;;5054331;28;20302;-58
2022/01/13 00:56:33;;;;;;;35.83;21.88;;;0.60;80.20;;;;;;5054262;28;20202;-59
2022/01/13 00:59:03;;;;;;;35.58;21.63;;;0.70;80.30;;;;;;5053173;28;20208;-57
2022/01/13 01:01:30;;;;;;;37.03;22.33;;;0.70;79.90;;;;;;5054633;28;20562;-55
2022/01/13 01:03:57;;;;;;;34.08;21.70;;;0.60;80.10;;;;;;5054200;28;20221;-58
2022/01/13 01:06:23;;;;;;;37.45;22.67;;;0.60;79.50;;;;;;5054194;28;20201;-59
2022/01/13 01:08:50;;;;;;;34.80;21.92;;;0.40;80.30;;;;;;5054235;28;20755;-59
2022/01/13 01:11:17;;;;;;;38.28;22.95;;;0.20;81.00;;;;;;5053918;28;20233;-59
2022/01/13 01:13:47;;;;;;;38.58;23.40;;;0.10;81.60;;;;;;5052943;28;20603;-59
2022/01/13 01:16:17;;;;;;;35.33;22.08;;;0.10;82.00;;;;;;5054065;28;20241;-58
2022/01/13 01:18:53;;;;;;;41.83;22.95;;;0.40;82.00;;;;;;5053945;28;20704;-60
2022/01/13 01:21:47;;;;;;;35.25;20.92;;;0.70;81.30;;;;;;5053340;28;20845;-60
2022/01/13 01:24:30;;;;;;;40.50;24.45;;;0.80;80.70;;;;;;5053872;28;20308;-58
2022/01/13 01:27:03;;;;;;;35.58;23.05;;;0.70;80.90;;;;;;5053145;28;20209;-55
2022/01/13 01:29:36;;;;;;;34.13;21.73;;;0.90;80.40;;;;;;5053743;28;20248;-59
2022/01/13 01:32:09;;;;;;;34.88;22.45;;;1.10;80.00;;;;;;5053742;28;20202;-61
2022/01/13 01:34:49;;;;;;;34.20;21.95;;;1.30;79.30;;;;;;5053827;28;20212;-57
2022/01/13 01:37:18;;;;;;;40.15;22.67;;;1.20;78.90;;;;;;5053619;28;20201;-59
2022/01/13 01:39:47;;;;;;;37.10;22.90;;;1.10;78.40;;;;;;5053612;28;20206;-60
2022/01/13 01:42:14;;;;;;;35.85;22.50;;;1.00;78.70;;;;;;5052164;28;20202;-58
2022/01/13 01:44:44;;;;;;;43.70;24.05;;;1.00;79.20;;;;;;5053823;28;20239;-59
2022/01/13 01:47:14;;;;;;;36.10;22.85;;;1.00;78.90;;;;;;5053536;28;20210;-59
2022/01/13 01:49:42;;;;;;;34.03;22.30;;;1.10;78.60;;;;;;5053523;28;20206;-60
2022/01/13 01:52:11;;;;;;;33.80;22.10;;;1.20;78.60;;;;;;5053446;28;20235;-59
2022/01/13 01:54:38;;;;;;;36.85;23.83;;;1.10;78.70;;;;;;5053353;28;20206;-59
2022/01/13 01:57:06;;;;;;;35.85;21.73;;;1.10;78.60;;;;;;5051823;28;20214;-58
2022/01/13 01:59:36;;;;;;;36.40;21.27;;;1.00;78.80;;;;;;5053293;28;20205;-59
2022/01/13 02:02:04;;;;;;;41.83;24.02;;;1.00;78.90;;;;;;5053395;28;20212;-60
2022/01/13 02:04:32;;;;;;;34.15;22.20;;;0.90;79.20;;;;;;5053204;28;20275;-59
2022/01/13 02:07:03;;;;;;;40.85;23.63;;;0.90;78.60;;;;;;5053069;28;20294;-60
2022/01/13 02:09:30;;;;;;;42.25;24.65;;;1.00;78.50;;;;;;5053071;28;20301;-60
2022/01/13 02:12:04;;;;;;;36.65;22.55;;;1.00;78.10;;;;;;5052378;28;20325;-56
2022/01/13 02:14:36;;;;;;;40.47;24.05;;;1.00;77.60;;;;;;5053254;28;20214;-56
2022/01/13 02:17:08;;;;;;;38.25;23.25;;;0.90;77.70;;;;;;5052988;28;20225;-59
2022/01/13 02:19:38;;;;;;;38.67;25.17;;;0.80;77.50;;;;;;5052948;28;20211;-55
2022/01/13 02:22:08;;;;;;;42.75;24.15;;;0.60;77.80;;;;;;5053028;28;20205;-59
2022/01/13 02:24:35;;;;;;;43.78;24.98;;;0.50;78.20;;;;;;5052866;28;20229;-59
2022/01/13 02:27:03;;;;;;;41.83;24.50;;;0.40;78.50;;;;;;5051418;28;20205;-58
2022/01/13 02:29:30;;;;;;;42.20;24.77;;;0.20;78.90;;;;;;5052887;28;20205;-59
2022/01/13 02:31:56;;;;;;;36.38;22.63;;;0.20;79.40;;;;;;5052009;28;20201;-58
2022/01/13 02:34:24;;;;;;;48.47;25.33;;;0.10;79.90;;;;;;5052774;28;20209;-59
2022/01/13 02:36:53;;;;;;;41.40;24.42;;;0.00;80.40;;;;;;5052750;28;20304;-59
2022/01/13 02:39:23;;;;;;;40.25;23.17;;;0.00;80.60;;;;;;5052947;28;20206;-59
2022/01/13 02:41:50;;;;;;;47.78;25.90;;;0.00;80.70;;;;;;5052645;28;20205;-57
2022/01/13 02:44:20;;;;;;;44.53;24.65;;;0.00;80.70;;;;;;5051331;28;20205;-59
2022/01/13 02:47:09;;;;;;;41.05;23.00;;;-0.10;80.90;;;;;;5052548;28;20206;-60
2022/01/13 02:49:36;;;;;;;42.40;23.40;;;-0.10;81.20;;;;;;5052670;28;20233;-60
2022/01/13 02:52:04;;;;;;;41.25;23.65;;;-0.10;81.20;;;;;;5052546;28;20598;-59
2022/01/13 02:54:33;;;;;;;43.38;23.83;;;-0.20;81.50;;;;;;5052684;28;20214;-58
2022/01/13 02:56:59;;;;;;;44.53;23.58;;;-0.20;81.80;;;;;;5051339;28;20686;-55
2022/01/13 02:59:26;;;;;;;43.85;24.38;;;-0.30;82.00;;;;;;5052689;28;20300;-59
2022/01/13 03:01:53;;;;;;;43.47;23.88;;;-0.30;82.20;;;;;;5052543;28;20205;-59
2022/01/13 03:04:22;;;;;;;42.83;26.17;;;-0.30;82.30;;;;;;5052331;28;20202;-57
2022/01/13 03:06:49;;;;;;;43.65;24.27;;;-0.30;82.40;;;;;;5052378;28;20217;-60
2022/01/13 03:09:16;;;;;;;43.08;24.45;;;-0.30;82.40;;;;;;5052523;28;20247;-55
2022/01/13 03:11:46;;;;;;;40.58;23.23;;;-0.30;82.30;;;;;;5052165;28;20700;-59
2022/01/13 03:14:14;;;;;;;43.05;23.85;;;-0.30;82.30;;;;;;5051140;28;20649;-60
2022/01/13 03:16:42;;;;;;;42.00;24.40;;;-0.30;82.40;;;;;;5052370;28;20587;-58
2022/01/13 03:19:09;;;;;;;39.65;22.75;;;-0.20;82.50;;;;;;5052446;28;20212;-56
2022/01/13 03:21:36;;;;;;;38.67;22.55;;;-0.20;82.40;;;;;;5052358;28;20652;-59
2022/01/13 03:24:06;;;;;;;48.65;25.95;;;-0.10;82.20;;;;;;5052472;28;20202;-57
2022/01/13 03:26:33;;;;;;;44.80;24.02;;;-0.10;82.20;;;;;;5052258;28;20240;-59
2022/01/13 03:29:15;;;;;;;45.85;25.17;;;0.00;82.10;;;;;;5050901;28;20296;-56
2022/01/13 03:31:43;;;;;;;39.00;22.70;;;0.00;81.90;;;;;;5052238;28;20288;-57
2022/01/13 03:34:10;;;;;;;39.67;24.77;;;0.00;81.80;;;;;;5052274;28;20280;-58
2022/01/13 03:36:37;;;;;;;40.70;24.67;;;-0.10;82.00;;;;;;5052299;28;20217;-59
2022/01/13 03:39:05;;;;;;;44.33;23.52;;;-0.10;82.10;;;;;;5052190;28;20216;-56
2022/01/13 03:41:33;;;;;;;48.40;23.70;;;0.00;82.20;;;;;;5052318;28;20208;-58
2022/01/13 03:44:05;;;;;;;42.33;24.05;;;-0.10;82.20;;;;;;5052164;28;20563;-57
2022/01/13 03:46:34;;;;;;;50.05;24.85;;;-0.10;82.30;;;;;;5055737;28;20324;-59
2022/01/13 03:49:01;;;;;;;41.45;25.02;;;-0.10;82.50;;;;;;5055842;28;20213;-60
2022/01/13 03:52:04;;;;;;;38.85;22.20;;;0.00;82.50;;;;;;5055690;28;20202;-58
2022/01/13 03:55:09;;;;;;;43.33;24.55;;;0.00;82.40;;;;;;5013798;28;20205;-60
2022/01/13 03:58:29;;;;;;;47.85;24.70;;;0.00;82.20;;;;;;5001332;28;20638;-59
2022/01/13 04:01:38;;;;;;;41.67;23.40;;;0.10;82.20;;;;;;5055478;28;20266;-57
2022/01/13 04:04:05;;;;;;;40.78;23.50;;;0.10;82.00;;;;;;5055534;28;20594;-58
2022/01/13 04:06:40;;;;;;;42.45;23.10;;;0.10;82.10;;;;;;5055357;28;20229;-57
2022/01/13 04:09:10;;;;;;;42.75;23.13;;;0.20;82.00;;;;;;5055438;28;20205;-57
2022/01/13 04:11:37;;;;;;;39.53;22.50;;;0.30;81.80;;;;;;5055241;28;20237;-57
2022/01/13 04:14:06;;;;;;;36.17;22.10;;;0.20;81.60;;;;;;5054015;28;20300;-56
2022/01/13 04:16:36;;;;;;;39.83;22.60;;;0.30;81.70;;;;;;5055188;28;20806;-59
2022/01/13 04:19:06;;;;;;;40.22;22.10;;;0.40;81.50;;;;;;5055185;28;20676;-59
2022/01/13 04:21:33;;;;;;;36.05;21.00;;;0.40;81.30;;;;;;5055191;28;20292;-56
2022/01/13 04:24:00;;;;;;;41.28;22.60;;;0.40;81.30;;;;;;5055187;28;20200;-58
2022/01/13 04:26:30;;;;;;;37.63;21.95;;;0.50;81.10;;;;;;5054870;28;20240;-58
2022/01/13 04:29:04;;;;;;;37.63;22.35;;;0.50;81.00;;;;;;5053495;28;20244;-58
2022/01/13 04:31:31;;;;;;;42.25;23.58;;;0.60;80.80;;;;;;5055020;28;20212;-58
2022/01/13 04:34:00;;;;;;;39.95;21.92;;;0.60;80.60;;;;;;5054867;28;20212;-58
2022/01/13 04:36:26;;;;;;;38.85;21.48;;;0.60;80.40;;;;;;5054865;28;20201;-57
2022/01/13 04:38:53;;;;;;;35.13;20.38;;;0.70;80.70;;;;;;5054697;28;20288;-56
2022/01/13 04:41:29;;;;;;;34.40;21.10;;;0.70;80.80;;;;;;5054592;28;20208;-59
2022/01/13 04:43:56;;;;;;;35.45;20.42;;;0.70;80.80;;;;;;5053458;28;20613;-58
2022/01/13 04:46:23;;;;;;;37.92;20.80;;;0.70;80.30;;;;;;5054599;28;20237;-59
2022/01/13 04:48:50;;;;;;;31.73;20.25;;;0.70;80.80;;;;;;5054784;28;20292;-59
2022/01/13 04:51:19;;;;;;;32.65;21.02;;;0.70;80.90;;;;;;5054657;28;20203;-59
2022/01/13 04:53:45;;;;;;;36.05;21.67;;;0.70;81.00;;;;;;5054736;28;21013;-58
2022/01/13 04:56:15;;;;;;;31.33;18.92;;;0.90;81.00;;;;;;5053561;28;20295;-57
2022/01/13 04:58:42;;;;;;;34.35;20.45;;;0.90;80.70;;;;;;5053062;28;20202;-57
2022/01/13 05:01:09;;;;;;;36.97;22.30;;;0.80;80.80;;;;;;5054418;28;20208;-58
2022/01/13 05:03:36;;;;;;;35.63;21.58;;;0.70;80.80;;;;;;5054346;28;20236;-57
2022/01/13 05:06:03;;;;;;;32.92;19.30;;;0.80;80.80;;;;;;5054215;28;20316;-58
2022/01/13 05:08:31;;;;;;;34.10;19.88;;;0.80;80.30;;;;;;5054163;28;20347;-59
2022/01/13 05:10:58;;;;;;;32.65;20.55;;;0.90;80.30;;;;;;5054042;28;20268;-59
2022/01/13 05:13:25;;;;;;;32.08;21.02;;;0.90;80.20;;;;;;5052956;28;20252;-58
2022/01/13 05:15:54;;;;;;;33.83;20.48;;;0.90;80.20;;;;;;5054050;28;20308;-56
2022/01/13 05:18:28;;;;;;;36.53;20.95;;;0.90;80.00;;;;;;5054171;28;20550;-58
2022/01/13 05:21:02;;;;;;;32.40;20.73;;;0.90;80.00;;;;;;5053887;28;20211;-59
2022/01/13 05:23:29;;;;;;;33.72;22.77;;;0.90;79.80;;;;;;5054040;28;20663;-56
2022/01/13 05:25:57;;;;;;;30.42;19.52;;;0.80;80.30;;;;;;5053826;28;20300;-60
2022/01/13 05:28:24;;;;;;;34.58;20.42;;;0.90;80.30;;;;;;5052569;28;20246;-60
2022/01/13 05:30:51;;;;;;;33.92;20.50;;;0.90;80.50;;;;;;5053812;28;20292;-60
2022/01/13 05:33:18;;;;;;;30.35;20.30;;;0.90;80.80;;;;;;5053831;28;20219;-60
2022/01/13 05:35:45;;;;;;;31.02;19.85;;;0.90;80.70;;;;;;5053693;28;20751;-59
2022/01/13 05:38:12;;;;;;;34.97;19.95;;;1.10;80.80;;;;;;5053794;28;20205;-58
2022/01/13 05:40:39;;;;;;;34.90;20.15;;;1.20;80.40;;;;;;5053616;28;20734;-60
2022/01/13 05:43:07;;;;;;;35.33;20.20;;;1.20;80.30;;;;;;5052152;28;20676;-60
2022/01/13 05:45:34;;;;;;;31.48;19.50;;;1.20;80.10;;;;;;5053425;28;20232;-60
2022/01/13 05:48:03;;;;;;;37.70;21.13;;;1.10;80.30;;;;;;5053377;28;20292;-59
2022/01/13 05:50:30;;;;;;;29.52;19.13;;;1.00;80.10;;;;;;5053386;28;20208;-59
2022/01/13 05:52:58;;;;;;;31.80;20.25;;;1.10;80.50;;;;;;5053332;28;20201;-59
2022/01/13 05:55:25;;;;;;;32.90;21.02;;;0.90;80.10;;;;;;5053299;28;20570;-60
2022/01/13 05:57:52;;;;;;;34.00;20.38;;;0.60;80.80;;;;;;5051907;28;20208;-60
2022/01/13 06:00:22;;;;;;;36.78;22.55;;;0.60;81.50;;;;;;5053275;28;20288;-60
2022/01/13 06:02:49;;;;;;;32.97;20.27;;;0.80;81.50;;;;;;5053095;28;20201;-60
2022/01/13 06:05:16;;;;;;;36.90;21.35;;;0.80;81.30;;;;;;5053244;28;20197;-59
2022/01/13 06:07:43;;;;;;;34.67;21.02;;;0.90;81.10;;;;;;5052940;28;20232;-58
2022/01/13 06:10:14;;;;;;;31.67;20.13;;;0.90;80.60;;;;;;5053224;28;20284;-60
2022/01/13 06:12:41;;;;;;;29.52;18.88;;;0.90;80.50;;;;;;5051565;28;20245;-60
2022/01/13 06:15:09;;;;;;;31.48;19.60;;;0.80;80.70;;;;;;5052855;28;20240;-59
2022/01/13 06:17:39;;;;;;;36.05;22.25;;;0.70;81.30;;;;;;5052978;28;20672;-60
2022/01/13 06:20:10;;;;;;;35.28;21.10;;;0.60;81.60;;;;;;5052978;28;20201;-58
2022/01/13 06:22:38;;;;;;;34.58;20.77;;;0.60;82.00;;;;;;5052946;28;20213;-59
2022/01/13 06:25:06;;;;;;;28.38;19.42;;;0.70;82.10;;;;;;5052815;28;20236;-59
2022/01/13 06:27:33;;;;;;;36.92;20.17;;;0.80;82.00;;;;;;5051280;28;20591;-59
2022/01/13 06:30:01;;;;;;;27.63;19.52;;;0.90;81.70;;;;;;5052819;28;20284;-60
2022/01/13 06:32:28;;;;;;;28.92;20.00;;;1.00;81.70;;;;;;5052771;28;20652;-60
2022/01/13 06:34:56;;;;;;;31.50;19.83;;;1.10;81.50;;;;;;5052722;28;20733;-60
2022/01/13 06:37:23;;;;;;;27.00;17.40;;;1.20;81.60;;;;;;5052798;28;20625;-58
2022/01/13 06:39:50;;;;;;;26.15;17.23;;;1.20;81.20;;;;;;5052648;28;20205;-60
2022/01/13 06:42:17;;;;;;;28.60;18.48;;;1.30;81.20;;;;;;5051370;28;20205;-60
2022/01/13 06:44:45;;;;;;;22.52;16.83;;;1.30;81.20;;;;;;5052767;28;20738;-60
2022/01/13 06:47:12;;;;;;;24.45;17.40;;;1.40;81.40;;;;;;5052565;28;20319;-60
2022/01/13 06:49:39;;;;;;;25.90;15.93;;;1.50;81.30;;;;;;5052577;28;20221;-59
2022/01/13 06:52:08;;;;;;;23.05;16.30;;;1.60;81.10;;;;;;5052426;28;20205;-59
2022/01/13 06:54:35;;;;;;;23.70;15.65;;;1.80;80.70;;;;;;5052561;28;20247;-60
2022/01/13 06:57:02;;;;;;;23.85;16.10;;;1.90;80.50;;;;;;5051087;28;20300;-59
2022/01/13 06:59:29;;;;;;;25.20;16.45;;;1.90;79.80;;;;;;5052441;28;20245;-59
2022/01/13 07:01:59;;;;;;;29.33;17.88;;;1.60;79.70;;;;;;5052496;28;20205;-60
2022/01/13 07:04:27;;;;;;;31.77;20.55;;;1.30;80.30;;;;;;5052629;28;20205;-60
2022/01/13 07:06:54;;;;;;;32.38;21.48;;;1.00;81.00;;;;;;5052331;28;20691;-60
2022/01/13 07:09:22;;;;;;;31.10;19.55;;;1.00;81.10;;;;;;5052496;28;20205;-59
2022/01/13 07:11:49;;;;;;;29.70;19.67;;;1.00;80.80;;;;;;5052138;28;20717;-60
2022/01/13 07:14:16;;;;;;;33.88;21.17;;;1.00;80.70;;;;;;5050877;28;20296;-59
2022/01/13 07:16:44;;;;;;;29.02;20.02;;;1.00;80.70;;;;;;5052439;28;20197;-60
2022/01/13 07:19:13;;;;;;;30.15;20.25;;;1.00;81.00;;;;;;5054298;28;20206;-59
2022/01/13 07:21:40;;;;;;;29.70;18.55;;;1.00;81.20;;;;;;5056220;28;20208;-59
2022/01/13 07:24:08;;;;;;;29.20;19.15;;;1.00;81.00;;;;;;5055816;28;20205;-59
2022/01/13 07:26:36;;;;;;;27.48;19.20;;;1.00;81.10;;;;;;5056025;28;20714;-60
2022/01/13 07:29:03;;;;;;;27.95;19.83;;;1.10;80.90;;;;;;5054645;28;20207;-58
2022/01/13 07:31:30;;;;;;;30.33;19.05;;;1.10;81.20;;;;;;5056040;28;20560;-59
2022/01/13 07:33:58;;;;;;;28.55;18.95;;;1.20;81.30;;;;;;5055902;28;20212;-59
2022/01/13 07:36:25;;;;;;;23.65;16.98;;;1.30;81.10;;;;;;5055936;28;20665;-60
2022/01/13 07:38:52;;;;;;;25.80;16.52;;;1.30;80.80;;;;;;5056074;28;20288;-59
2022/01/13 07:41:19;;;;;;;22.65;15.15;;;1.20;81.10;;;;;;5055800;28;20211;-59
2022/01/13 07:43:52;;;;;;;19.60;13.93;;;1.30;81.30;;;;;;5054382;28;20687;-59
2022/01/13 07:46:20;;;;;;;19.35;13.68;;;1.30;81.10;;;;;;5055684;28;20257;-59
2022/01/13 07:48:47;;;;;;;20.15;12.63;;;1.30;81.20;;;;;;5055802;28;20198;-60
2022/01/13 07:51:14;;;;;;;16.92;12.00;;;1.30;81.60;;;;;;5055593;28;20281;-59
2022/01/13 07:53:42;;;;;;;15.52;10.73;;;1.40;81.30;;;;;;5055621;28;20731;-59
2022/01/13 07:56:09;;;;;;;14.88;10.95;;;1.50;81.50;;;;;;5055557;28;20209;-58
2022/01/13 07:58:37;;;;;;;16.30;11.13;;;1.50;81.30;;;;;;5054197;28;20206;-59
2022/01/13 08:01:05;;;;;;;16.83;11.88;;;1.50;81.40;;;;;;5055567;28;20292;-60
2022/01/13 08:03:32;;;;;;;27.65;15.02;;;1.50;81.20;;;;;;5055505;28;20224;-60
2022/01/13 08:06:00;;;;;;;23.58;17.48;;;1.30;80.80;;;;;;5055317;28;20205;-60
2022/01/13 08:08:27;;;;;;;27.40;18.00;;;1.10;81.20;;;;;;5055469;28;20233;-59
2022/01/13 08:10:54;;;;;;;29.90;19.35;;;1.00;81.20;;;;;;5055476;28;20320;-58
2022/01/13 08:13:21;;;;;;;25.95;18.38;;;0.80;81.30;;;;;;5053916;28;20248;-59
2022/01/13 08:15:50;;;;;;;32.63;20.88;;;0.60;81.80;;;;;;5055238;28;20317;-59
2022/01/13 08:21:03;;;;;;;27.63;19.65;;;0.80;82.00;;;;;;5055188;28;20320;-60
2022/01/13 08:23:30;;;;;;;30.40;21.35;;;0.90;81.70;;;;;;5055127;28;20300;-56
2022/01/13 08:25:57;;;;;;;30.83;18.80;;;0.90;81.10;;;;;;5054941;28;20288;-56
2022/01/13 08:28:27;;;;;;;29.63;18.60;;;1.00;81.00;;;;;;5053584;28;20216;-59
2022/01/13 08:30:54;;;;;;;27.17;18.00;;;1.10;80.90;;;;;;5053547;28;20202;-58
2022/01/13 08:33:23;;;;;;;30.02;19.90;;;1.10;80.00;;;;;;5054834;28;20233;-58
2022/01/13 08:35:50;;;;;;;30.30;18.73;;;0.90;80.10;;;;;;5054845;28;20224;-59
2022/01/13 08:38:18;;;;;;;30.00;18.85;;;0.80;80.90;;;;;;5054740;28;20205;-58
2022/01/13 08:40:46;;;;;;;28.00;18.63;;;0.90;81.00;;;;;;5054843;28;20210;-58
2022/01/13 08:43:13;;;;;;;26.60;17.08;;;0.90;81.40;;;;;;5053298;28;20205;-57
2022/01/13 08:45:41;;;;;;;26.00;16.27;;;1.10;81.40;;;;;;5054599;28;20215;-58
2022/01/13 08:48:07;;;;;;;26.10;17.25;;;1.20;81.00;;;;;;5054412;28;20721;-56
2022/01/13 08:50:36;;;;;;;24.35;14.88;;;1.30;80.70;;;;;;5054513;28;20202;-59
2022/01/13 08:53:04;;;;;;;25.90;15.85;;;1.30;80.70;;;;;;5054601;28;20284;-59
2022/01/13 08:55:31;;;;;;;22.63;14.35;;;1.40;80.50;;;;;;5054612;28;20300;-55
2022/01/13 08:57:58;;;;;;;26.08;18.27;;;1.40;80.30;;;;;;5052967;28;20216;-57
2022/01/13 09:00:26;;;;;;;28.63;18.70;;;1.10;80.30;;;;;;5054355;28;20208;-60
2022/01/13 09:02:53;;;;;;;33.35;21.30;;;0.90;80.90;;;;;;5054175;28;20205;-57
2022/01/13 09:05:20;;;;;;;32.95;21.98;;;0.80;81.40;;;;;;5054352;28;20205;-59
2022/01/13 09:07:48;;;;;;;27.80;19.48;;;0.80;81.00;;;;;;5054238;28;20239;-59
2022/01/13 09:10:17;;;;;;;30.95;22.27;;;0.80;80.70;;;;;;5054292;28;20202;-58
2022/01/13 09:12:44;;;;;;;32.78;21.90;;;0.70;80.30;;;;;;5052684;28;20674;-56
2022/01/13 09:15:17;;;;;;;36.25;22.90;;;0.50;81.10;;;;;;5053995;28;20217;-56
2022/01/13 09:17:45;;;;;;;35.95;22.70;;;0.60;81.00;;;;;;5054188;28;20614;-58
2022/01/13 09:20:13;;;;;;;40.08;23.67;;;0.50;80.60;;;;;;5054075;28;20229;-57
2022/01/13 09:22:40;;;;;;;36.35;22.90;;;0.50;80.80;;;;;;5054007;28;20212;-55
2022/01/13 09:25:10;;;;;;;32.95;21.50;;;0.70;81.10;;;;;;5053841;28;20209;-55
2022/01/13 09:27:39;;;;;;;34.28;22.13;;;0.80;80.30;;;;;;5052635;28;20251;-59
2022/01/13 09:30:08;;;;;;;42.10;23.70;;;0.80;79.70;;;;;;5053721;28;20205;-56
2022/01/13 09:32:36;;;;;;;39.42;26.10;;;0.80;79.60;;;;;;5053885;28;20208;-57
2022/01/13 09:35:03;;;;;;;37.67;23.63;;;0.80;78.90;;;;;;5053698;28;20205;-57
2022/01/13 09:37:30;;;;;;;35.53;23.38;;;0.80;79.20;;;;;;5053549;28;20668;-56
2022/01/13 09:39:57;;;;;;;28.88;21.90;;;0.80;79.30;;;;;;5053696;28;20288;-56
2022/01/13 09:42:27;;;;;;;35.08;22.80;;;0.80;79.10;;;;;;5052044;28;20219;-56
2022/01/13 09:44:55;;;;;;;33.15;22.70;;;0.80;78.90;;;;;;5053524;28;20212;-55
2022/01/13 09:47:22;;;;;;;30.70;21.35;;;0.80;78.60;;;;;;5053523;28;20237;-58
2022/01/13 09:49:50;;;;;;;30.23;20.50;;;0.80;78.80;;;;;;5053528;28;20208;-56
2022/01/13 09:52:17;;;;;;;26.33;17.50;;;0.70;79.00;;;;;;5053377;28;20335;-60
2022/01/13 09:54:44;;;;;;;22.45;16.52;;;0.70;79.30;;;;;;5053382;28;20209;-59
2022/01/13 09:57:11;;;;;;;26.88;16.30;;;0.70;79.70;;;;;;5052127;28;20205;-59
2022/01/13 09:59:39;;;;;;;25.33;17.10;;;0.70;79.90;;;;;;5053389;28;20205;-59
2022/01/13 10:02:06;;;;;;;24.55;17.05;;;0.70;79.60;;;;;;5053370;28;20237;-60
2022/01/13 10:04:47;;;;;;;26.67;16.92;;;0.80;79.70;;;;;;5053183;28;20251;-59
2022/01/13 10:07:18;;;;;;;25.13;16.88;;;0.70;80.10;;;;;;5053168;28;20298;-60
2022/01/13 10:09:54;;;;;;;26.95;16.98;;;0.80;80.50;;;;;;5053209;28;20205;-60
2022/01/13 10:12:25;;;;;;;26.40;17.17;;;1.00;80.10;;;;;;5051781;28;20236;-60
2022/01/13 10:17:48;;;;;;;24.88;16.45;;;1.30;79.70;;;;;;5053220;28;20643;-60
2022/01/13 10:20:17;;;;;;;24.27;16.70;;;1.50;79.40;;;;;;5052961;28;20205;-61
2022/01/13 10:22:45;;;;;;;28.10;15.52;;;1.50;78.10;;;;;;5054294;28;20202;-56
2022/01/13 10:25:35;;;;;;;19.95;15.05;;;1.30;78.70;;;;;;5052807;28;20300;-60
2022/01/13 10:28:14;;;;;;;22.45;16.13;;;1.30;79.40;;;;;;5051314;28;20231;-57
2022/01/13 10:30:44;;;;;;;23.27;15.65;;;1.40;79.10;;;;;;5052805;28;20236;-59
2022/01/13 10:33:20;;;;;;;18.90;15.63;;;1.30;78.60;;;;;;5052805;28;20672;-59
2022/01/13 10:35:48;;;;;;;25.08;16.23;;;1.20;79.50;;;;;;5052669;28;20223;-58
2022/01/13 10:38:16;;;;;;;24.35;16.10;;;1.20;79.40;;;;;;5052673;28;20200;-57
2022/01/13 10:40:47;;;;;;;21.95;14.63;;;1.20;79.70;;;;;;5052746;28;20625;-58
2022/01/13 10:43:15;;;;;;;23.27;14.80;;;1.40;80.50;;;;;;5051314;28;20567;-60
2022/01/13 10:45:46;;;;;;;25.60;15.30;;;1.60;79.60;;;;;;5052712;28;20263;-58
2022/01/13 10:48:15;;;;;;;21.27;14.60;;;1.80;79.20;;;;;;5052768;28;20255;-59
2022/01/13 10:50:45;;;;;;;23.55;15.45;;;2.10;79.10;;;;;;5052516;28;20561;-55
2022/01/13 10:53:14;;;;;;;20.08;14.75;;;2.10;78.00;;;;;;5052856;28;20304;-55
2022/01/13 10:55:48;;;;;;;21.00;14.60;;;2.30;77.70;;;;;;5056733;28;20209;-59
2022/01/13 10:58:18;;;;;;;20.48;13.73;;;2.50;78.40;;;;;;5055590;28;20227;-59
2022/01/13 11:00:47;;;;;;;22.58;15.52;;;2.60;77.00;;;;;;5056797;28;20296;-59
2022/01/13 11:03:17;;;;;;;19.42;13.95;;;2.90;77.80;;;;;;5054924;28;20208;-57
2022/01/13 11:05:47;;;;;;;24.27;15.50;;;3.20;77.50;;;;;;5047207;28;20234;-59
2022/01/13 11:08:21;;;;;;;23.10;16.77;;;3.50;76.80;;;;;;5036497;28;20230;-60
2022/01/13 11:10:50;;;;;;;21.55;15.80;;;3.70;76.60;;;;;;5036425;28;20328;-57
2022/01/13 11:13:18;;;;;;;22.05;15.23;;;3.80;75.20;;;;;;5035187;28;20313;-59
2022/01/13 11:15:51;;;;;;;20.98;14.25;;;3.90;74.00;;;;;;5036242;28;20202;-59
2022/01/13 11:18:19;;;;;;;18.33;14.20;;;3.80;72.90;;;;;;5036358;28;20653;-58
2022/01/13 11:20:47;;;;;;;20.42;15.23;;;3.90;73.00;;;;;;5036201;28;20202;-59
2022/01/13 11:23:17;;;;;;;19.55;15.40;;;5.00;71.60;;;;;;5036398;28;20206;-58
2022/01/13 11:25:45;;;;;;;19.65;15.27;;;6.60;67.20;;;;;;5036334;28;20202;-62
2022/01/13 11:28:13;;;;;;;15.93;14.32;;;8.70;67.90;;;;;;5034942;28;20249;-63
2022/01/13 11:30:40;;;;;;;17.63;15.18;;;11.00;64.50;;;;;;5036220;28;20208;-61
2022/01/13 11:33:08;;;;;;;19.63;15.60;;;13.30;60.80;;;;;;5036181;28;20679;-63
2022/01/13 11:35:39;;;;;;;17.70;15.90;;;15.10;55.50;;;;;;5055878;28;20197;-59
2022/01/13 11:38:08;;;;;;;18.50;16.70;;;16.50;53.10;;;;;;5055936;28;20205;-61
2022/01/13 11:40:38;;;;;;;17.58;15.63;;;17.70;51.70;;;;;;5055972;28;20205;-60
2022/01/13 11:43:08;;;;;;;18.30;16.48;;;18.70;47.80;;;;;;5054499;28;20201;-60
2022/01/13 11:45:43;;;;;;;20.50;18.43;;;19.40;46.40;;;;;;5055871;28;20293;-61
2022/01/13 11:48:20;;;;;;;19.13;17.23;;;20.10;45.30;;;;;;5055723;28;20548;-61
2022/01/13 11:50:51;;;;;;;19.20;17.20;;;20.70;44.60;;;;;;5055533;28;20448;-60
2022/01/13 11:53:30;;;;;;;19.13;17.13;;;21.20;43.70;;;;;;5055536;28;20452;-58
2022/01/13 11:56:00;;;;;;;19.80;17.90;;;21.40;39.60;;;;;;5055711;28;20547;-60
2022/01/13 11:58:31;;;;;;;18.07;16.33;;;21.70;41.00;;;;;;5054199;28;20454;-60
2022/01/13 12:01:09;;;;;;;18.93;17.13;;;22.10;40.40;;;;;;5055370;28;20454;-60
2022/01/13 12:03:42;;;;;;;18.10;15.97;;;22.70;40.90;;;;;;5055326;28;20898;-60
2022/01/13 12:06:09;;;;;;;19.10;17.10;;;22.80;36.70;;;;;;5055081;28;20444;-60
2022/01/13 12:08:44;;;;;;;21.83;19.67;;;21.90;33.70;;;;;;5055367;28;20494;-59
2022/01/13 12:11:31;;;;;;;20.37;18.40;;;20.90;36.20;;;;;;5055232;28;20478;-60
2022/01/13 12:13:59;;;;;;;20.87;19.00;;;20.60;37.50;;;;;;5053829;28;21000;-59
2022/01/13 12:16:55;;;;;;;21.67;19.57;;;20.20;35.90;;;;;;5055317;28;20803;-62
2022/01/13 12:19:32;;;;;;;21.53;18.20;;;18.90;34.30;;;;;;5055151;28;20452;-59
2022/01/13 12:22:05;;;;;;;19.70;17.60;;;18.00;36.00;;;;;;5055260;28;20448;-61
2022/01/13 12:24:47;;;;;;;21.33;19.07;;;18.80;41.70;;;;;;5054984;28;20444;-58
2022/01/13 12:27:15;;;;;;;20.70;18.60;;;19.10;36.90;;;;;;5053623;28;20447;-57
2022/01/13 12:29:48;;;;;;;18.37;16.57;;;19.50;39.10;;;;;;5055089;28;20554;-60
2022/01/13 12:32:17;;;;;;;21.20;19.20;;;20.30;38.50;;;;;;5054979;28;20809;-60
2022/01/13 12:34:49;;;;;;;22.20;20.00;;;21.40;37.30;;;;;;5054894;28;20498;-60
2022/01/13 12:37:30;;;;;;;21.10;18.90;;;22.10;36.40;;;;;;5054905;28;20446;-61
2022/01/13 12:40:00;;;;;;;20.10;18.20;;;22.40;35.70;;;;;;5054905;28;20494;-60
2022/01/13 12:42:36;;;;;;;20.87;18.97;;;22.30;34.60;;;;;;5053422;28;20528;-60
2022/01/13 12:47:48;;;;;;;20.60;18.57;;;21.50;34.90;;;;;;5054643;28;21088;-58
2022/01/13 12:50:20;;;;;;;21.53;19.57;;;20.90;33.60;;;;;;5054517;28;20454;-58
2022/01/13 12:52:48;;;;;;;20.90;18.73;;;20.10;35.00;;;;;;5054530;28;20448;-59
2022/01/13 12:55:15;;;;;;;22.57;20.43;;;19.80;35.60;;;;;;5054631;28;20807;-62
2022/01/13 12:57:51;;;;;;;21.67;19.67;;;18.90;35.60;;;;;;5053160;28;20460;-62